Time;durP1;ratioP1;P1;durP2;ratioP2;P2;SDS_P1;SDS_P2;PMS_P1;PMS_P2;Temp;Humidity;BMP_temperature;BMP_pressure;BME280_temperature;BME280_humidity;BME280_pressure;Samples;Min_cycle;Max_cycle;Signal;HPM_P1;HPM_P2
2022/04/12 00:00:05;;;;;;;4.30;2.90;;;;;;;16.69;25.36;100795.78;5024881;28;20370;-82
2022/04/12 00:02:32;;;;;;;3.75;2.53;;;;;;;16.68;25.41;100795.91;5009816;28;20050;-82
2022/04/12 00:04:59;;;;;;;4.93;2.60;;;;;;;16.66;25.63;100800.69;5008896;28;20061;-83
2022/04/12 00:07:46;;;;;;;4.97;2.67;;;;;;;16.65;25.32;100793.44;5002340;28;20058;-82
2022/04/12 00:10:14;;;;;;;3.83;2.60;;;;;;;16.66;25.61;100793.31;5012222;28;20050;-82
2022/04/12 00:12:41;;;;;;;3.83;2.40;;;;;;;16.64;25.76;100787.09;5015367;28;20232;-82
2022/04/12 00:15:10;;;;;;;4.93;2.70;;;;;;;16.65;25.56;100780.63;5012602;28;20050;-83
2022/04/12 00:20:27;;;;;;;5.35;2.70;;;;;;;16.60;25.66;100777.41;5009359;28;20100;-82
2022/04/12 00:22:58;;;;;;;3.70;2.50;;;;;;;16.62;26.01;100766.34;5014707;28;20057;-81
2022/04/12 00:25:26;;;;;;;4.30;2.58;;;;;;;16.60;26.05;100771.06;5012156;28;20085;-82
2022/04/12 00:27:54;;;;;;;4.85;2.72;;;;;;;16.60;25.91;100766.47;5010423;28;20085;-82
2022/04/12 00:30:23;;;;;;;5.07;2.40;;;;;;;16.59;25.92;100764.72;5013508;28;20062;-82
2022/04/12 00:32:52;;;;;;;4.68;2.65;;;;;;;16.57;25.77;100768.59;5017950;28;20092;-82
2022/04/12 00:35:20;;;;;;;4.32;2.67;;;;;;;16.57;25.86;100761.25;5004473;28;20054;-82
2022/04/12 00:37:47;;;;;;;4.97;2.88;;;;;;;16.56;25.93;100758.66;5013797;28;20042;-82
2022/04/12 00:40:16;;;;;;;4.85;2.67;;;;;;;16.54;25.80;100760.69;5005680;28;20077;-82
2022/04/12 00:42:43;;;;;;;3.40;2.47;;;;;;;16.52;26.16;100762.69;5013334;28;20173;-81
2022/04/12 00:45:09;;;;;;;5.07;2.70;;;;;;;16.51;26.13;100753.59;5005696;28;20090;-82
2022/04/12 00:47:36;;;;;;;4.32;2.80;;;;;;;16.50;26.20;100751.88;5013138;28;20448;-82
2022/04/12 00:50:04;;;;;;;4.25;2.72;;;;;;;16.51;26.34;100755.47;5012796;28;20505;-82
2022/04/12 00:52:36;;;;;;;4.35;2.55;;;;;;;16.50;25.84;100764.72;5012958;28;20048;-82
2022/04/12 00:55:04;;;;;;;5.57;2.80;;;;;;;16.47;26.01;100757.63;5002935;28;20058;-82
2022/04/12 00:57:35;;;;;;;5.38;2.60;;;;;;;16.48;26.27;100764.84;5009533;28;20049;-82
2022/04/12 01:00:06;;;;;;;4.88;2.53;;;;;;;16.47;26.54;100767.75;5010329;28;20125;-82
2022/04/12 01:02:33;;;;;;;4.20;2.58;;;;;;;16.45;26.53;100764.28;5010414;28;20142;-81
2022/04/12 01:05:01;;;;;;;3.50;2.35;;;;;;;16.45;26.36;100761.53;4959759;28;20057;-81
2022/04/12 01:07:28;;;;;;;4.55;2.47;;;;;;;16.43;26.59;100756.19;5013552;28;20124;-82
2022/04/12 01:09:56;;;;;;;4.68;2.47;;;;;;;16.44;26.15;100757.94;5007877;28;20577;-81
2022/04/12 01:12:23;;;;;;;4.25;2.60;;;;;;;16.42;26.24;100753.59;5011520;28;20096;-81
2022/04/12 01:14:49;;;;;;;5.18;2.60;;;;;;;16.40;26.50;100753.72;5009841;28;20460;-81
2022/04/12 01:17:16;;;;;;;4.40;2.65;;;;;;;16.39;26.86;100745.69;5013619;28;20084;-82
2022/04/12 01:19:42;;;;;;;4.25;2.63;;;;;;;16.38;26.57;100747.53;5002884;28;20093;-81
2022/04/12 01:22:17;;;;;;;5.40;2.97;;;;;;;16.38;26.79;100736.59;5012744;28;20053;-81
2022/04/12 01:24:44;;;;;;;5.65;2.97;;;;;;;16.34;26.58;100738.72;5004005;28;20125;-82
2022/04/12 01:27:11;;;;;;;5.15;2.95;;;;;;;16.33;26.72;100738.88;5010119;28;20055;-81
2022/04/12 01:29:38;;;;;;;5.10;2.80;;;;;;;16.31;26.45;100739.00;5013705;28;20141;-81
2022/04/12 01:32:07;;;;;;;4.60;2.90;;;;;;;16.30;26.83;100740.03;5013796;28;20045;-81
2022/04/12 01:34:35;;;;;;;4.78;2.88;;;;;;;16.30;26.75;100752.88;5007366;28;20046;-81
2022/04/12 01:37:07;;;;;;;5.60;2.80;;;;;;;16.29;26.90;100737.44;5004248;28;20078;-81
2022/04/12 01:39:34;;;;;;;4.22;2.65;;;;;;;16.25;26.67;100725.88;4996463;28;20065;-81
2022/04/12 01:42:00;;;;;;;4.93;2.60;;;;;;;16.26;26.87;100724.88;5010819;28;20675;-81
2022/04/12 01:44:27;;;;;;;4.20;2.80;;;;;;;16.25;27.05;100727.75;5010320;28;20057;-81
2022/04/12 01:46:53;;;;;;;4.32;2.58;;;;;;;16.26;26.70;100718.53;5008887;28;20129;-81
2022/04/12 01:49:20;;;;;;;5.05;2.95;;;;;;;16.25;26.61;100714.94;5009891;28;20061;-81
2022/04/12 01:51:48;;;;;;;5.22;2.70;;;;;;;16.23;26.80;100708.72;5012727;28;20058;-82
2022/04/12 01:54:14;;;;;;;6.85;3.08;;;;;;;16.20;27.04;100709.03;5010898;28;20092;-81
2022/04/12 01:56:41;;;;;;;4.25;2.47;;;;;;;16.21;27.15;100713.50;5012282;28;20049;-82
2022/04/12 01:59:07;;;;;;;5.40;2.92;;;;;;;16.19;27.15;100701.81;5011095;28;20569;-81
2022/04/12 02:01:34;;;;;;;5.15;2.80;;;;;;;16.19;27.25;100696.31;5011922;28;20081;-80
2022/04/12 02:04:01;;;;;;;4.90;2.83;;;;;;;16.18;27.13;100705.53;5009828;28;20077;-81
2022/04/12 02:06:28;;;;;;;4.35;2.67;;;;;;;16.17;27.08;100697.47;5011619;28;20129;-81
2022/04/12 02:08:54;;;;;;;5.78;2.90;;;;;;;16.15;27.21;100702.22;5009417;28;20107;-80
2022/04/12 02:11:21;;;;;;;5.32;2.90;;;;;;;16.14;27.31;100709.56;5010079;28;20088;-81
2022/04/12 02:13:55;;;;;;;6.28;3.25;;;;;;;16.17;27.56;100709.28;4985847;28;20148;-81
2022/04/12 02:16:23;;;;;;;4.60;2.53;;;;;;;16.13;27.44;100702.38;5005886;28;20053;-83
2022/04/12 02:18:49;;;;;;;4.63;2.72;;;;;;;16.12;27.18;100700.66;5013222;28;20770;-82
2022/04/12 02:21:16;;;;;;;3.78;2.53;;;;;;;16.11;27.21;100696.19;5014101;28;20081;-83
2022/04/12 02:23:43;;;;;;;5.03;2.97;;;;;;;16.10;27.49;100704.53;5012988;28;20089;-83
2022/04/12 02:26:09;;;;;;;4.38;2.60;;;;;;;16.10;27.16;100704.53;5013173;28;20077;-82
2022/04/12 02:28:36;;;;;;;4.20;2.42;;;;;;;16.10;27.58;100708.13;5012998;28;20137;-82
2022/04/12 02:31:02;;;;;;;4.05;2.50;;;;;;;16.08;27.22;100701.91;5013602;28;20053;-83
2022/04/12 02:33:29;;;;;;;4.75;2.72;;;;;;;16.07;27.51;100700.19;5012080;28;20061;-82
2022/04/12 02:35:59;;;;;;;4.57;2.83;;;;;;;16.09;27.50;100703.66;5002299;28;20050;-82
2022/04/12 02:38:25;;;;;;;4.15;2.67;;;;;;;16.07;27.49;100702.94;5012368;28;20096;-82
2022/04/12 02:40:52;;;;;;;4.20;2.33;;;;;;;16.07;27.57;100704.78;5028811;28;20394;-82
2022/04/12 02:43:18;;;;;;;4.60;2.80;;;;;;;16.07;27.85;100715.75;5012479;28;20081;-82
2022/04/12 02:45:46;;;;;;;4.57;2.30;;;;;;;16.08;27.35;100712.88;5012635;28;20064;-82
2022/04/12 02:48:13;;;;;;;5.57;2.60;;;;;;;16.07;27.85;100711.13;5012447;28;20061;-81
2022/04/12 02:50:40;;;;;;;5.53;2.72;;;;;;;16.08;27.63;100701.06;5012125;28;20088;-82
2022/04/12 02:53:07;;;;;;;4.22;2.40;;;;;;;16.08;27.48;100701.91;5013629;28;20125;-82
2022/04/12 02:55:34;;;;;;;5.00;2.72;;;;;;;16.07;27.69;100693.84;5004258;28;20046;-83
2022/04/12 02:58:00;;;;;;;5.55;2.72;;;;;;;16.06;27.47;100697.63;5013507;28;20551;-82
2022/04/12 03:00:27;;;;;;;4.55;2.80;;;;;;;16.06;27.63;100705.84;5007498;28;20058;-82
2022/04/12 03:02:54;;;;;;;4.03;2.55;;;;;;;16.06;27.69;100692.13;5013033;28;20111;-82
2022/04/12 03:05:20;;;;;;;3.58;2.30;;;;;;;16.06;27.65;100697.63;5011371;28;20046;-82
2022/04/12 03:07:47;;;;;;;4.20;2.35;;;;;;;16.06;27.56;100695.72;5013477;28;20108;-82
2022/04/12 03:10:14;;;;;;;4.13;2.45;;;;;;;16.07;27.57;100693.84;5011513;28;20624;-81
2022/04/12 03:12:40;;;;;;;4.35;2.50;;;;;;;16.07;27.76;100689.22;5012103;28;20129;-82
2022/04/12 03:15:08;;;;;;;4.43;2.80;;;;;;;16.09;27.83;100695.44;5008163;28;20133;-82
2022/04/12 03:17:35;;;;;;;3.95;2.50;;;;;;;16.09;27.87;100695.44;5012066;28;20053;-82
2022/04/12 03:20:02;;;;;;;4.20;2.58;;;;;;;16.09;27.79;100691.84;5011467;28;20124;-82
2022/04/12 03:22:29;;;;;;;4.70;2.63;;;;;;;16.08;28.00;100699.19;5011767;28;20508;-82
2022/04/12 03:24:56;;;;;;;4.40;2.72;;;;;;;16.08;28.07;100692.84;5010398;28;20077;-82
2022/04/12 03:27:23;;;;;;;4.47;2.70;;;;;;;16.08;27.87;100692.84;5012676;28;20089;-82
2022/04/12 03:29:49;;;;;;;4.47;2.95;;;;;;;16.05;28.24;100682.19;5010319;28;20073;-82
2022/04/12 03:32:16;;;;;;;4.97;2.83;;;;;;;16.03;28.12;100687.81;5012570;28;20077;-82
2022/04/12 03:34:46;;;;;;;4.22;2.55;;;;;;;16.06;27.91;100681.19;5009656;28;20046;-83
2022/04/12 03:37:14;;;;;;;7.00;3.35;;;;;;;16.01;28.01;100673.38;5012546;28;20504;-82
2022/04/12 03:39:42;;;;;;;5.13;2.90;;;;;;;16.00;27.90;100668.91;5009368;28;20054;-82
2022/04/12 03:42:12;;;;;;;5.22;2.90;;;;;;;15.97;28.39;100661.84;5003524;28;20105;-83
2022/04/12 03:44:39;;;;;;;4.55;3.25;;;;;;;15.95;28.19;100666.59;5008959;28;20571;-82
2022/04/12 03:47:07;;;;;;;4.80;2.90;;;;;;;15.95;28.11;100654.78;5016229;28;20085;-82
2022/04/12 03:49:33;;;;;;;4.80;2.85;;;;;;;15.93;28.35;100654.91;5001369;28;20046;-82
2022/04/12 03:52:00;;;;;;;5.22;2.72;;;;;;;15.93;27.93;100643.09;5016094;28;20057;-83
2022/04/12 03:54:26;;;;;;;4.30;2.75;;;;;;;15.92;28.25;100639.50;5009481;28;20414;-82
2022/04/12 03:56:53;;;;;;;4.57;2.78;;;;;;;15.91;28.22;100648.72;5010567;28;20413;-82
2022/04/12 03:59:20;;;;;;;5.60;3.13;;;;;;;15.91;28.54;100650.59;5015683;28;20053;-83
2022/04/12 04:01:47;;;;;;;5.03;3.00;;;;;;;15.91;28.50;100650.59;5017246;28;20107;-83
2022/04/12 04:04:14;;;;;;;4.53;2.72;;;;;;;15.91;28.08;100647.84;5015759;28;20053;-82
2022/04/12 04:06:40;;;;;;;4.43;2.80;;;;;;;15.91;28.30;100662.41;5007992;28;20089;-83
2022/04/12 04:09:07;;;;;;;4.75;2.63;;;;;;;15.92;28.59;100660.53;5013686;28;20104;-82
2022/04/12 04:11:35;;;;;;;6.00;3.10;;;;;;;15.94;28.57;100651.19;5014019;28;20137;-82
2022/04/12 04:14:05;;;;;;;5.15;3.05;;;;;;;15.94;28.56;100647.56;5013777;28;20559;-82
2022/04/12 04:16:32;;;;;;;4.90;3.20;;;;;;;15.93;28.36;100654.91;5014438;28;20147;-82
2022/04/12 04:18:58;;;;;;;4.47;2.80;;;;;;;15.94;28.40;100642.97;5013482;28;20065;-82
2022/04/12 04:21:25;;;;;;;6.65;2.88;;;;;;;15.93;28.51;100643.97;5015386;28;20079;-83
2022/04/12 04:23:51;;;;;;;4.80;2.65;;;;;;;15.96;28.46;100653.78;5008854;28;20077;-82
2022/04/12 04:26:18;;;;;;;5.28;2.78;;;;;;;15.93;28.40;100660.41;5009259;28;20224;-83
2022/04/12 04:28:45;;;;;;;4.78;2.70;;;;;;;15.93;28.58;100657.66;5019657;28;20057;-82
2022/04/12 04:31:11;;;;;;;6.47;2.88;;;;;;;15.93;28.20;100649.44;5016248;28;20456;-82
2022/04/12 04:33:39;;;;;;;5.28;2.80;;;;;;;15.93;28.33;100657.66;5015673;28;20064;-82
2022/04/12 04:36:06;;;;;;;5.32;2.70;;;;;;;15.93;28.29;100659.53;4997639;28;20374;-82
2022/04/12 04:38:33;;;;;;;6.00;2.97;;;;;;;15.92;28.67;100666.00;5014897;28;20140;-82
2022/04/12 04:40:59;;;;;;;5.13;2.70;;;;;;;15.92;28.83;100669.63;4999068;28;20454;-82
2022/04/12 04:43:31;;;;;;;4.88;2.72;;;;;;;15.91;28.66;100662.41;5004050;28;20042;-82
2022/04/12 04:45:57;;;;;;;5.40;2.60;;;;;;;15.92;28.50;100669.63;5029320;28;20440;-82
2022/04/12 04:48:24;;;;;;;4.80;2.50;;;;;;;15.91;28.49;100662.41;5015417;28;20087;-82
2022/04/12 04:50:51;;;;;;;4.63;2.60;;;;;;;15.90;28.43;100665.28;5012394;28;20473;-82
2022/04/12 04:53:17;;;;;;;4.57;2.60;;;;;;;15.89;28.80;100664.44;4994515;28;20074;-82
2022/04/12 04:55:44;;;;;;;4.20;2.25;;;;;;;15.89;28.92;100678.13;5007158;28;20053;-83
2022/04/12 04:58:11;;;;;;;4.50;2.45;;;;;;;15.88;28.74;100679.13;5014004;28;20081;-82
2022/04/12 05:00:38;;;;;;;5.05;2.65;;;;;;;15.87;28.87;100682.88;5014230;28;20049;-82
2022/04/12 05:03:05;;;;;;;4.78;2.75;;;;;;;15.88;28.70;100684.59;5016030;28;20128;-82
2022/04/12 05:05:32;;;;;;;5.82;2.55;;;;;;;15.87;29.03;100676.53;5011460;28;20065;-82
2022/04/12 05:07:59;;;;;;;5.18;2.65;;;;;;;15.88;28.90;100681.88;5013322;28;20042;-82
2022/04/12 05:10:31;;;;;;;8.65;3.05;;;;;;;15.89;28.96;100685.47;5003487;28;20062;-82
2022/04/12 05:13:00;;;;;;;6.35;2.80;;;;;;;15.86;28.95;100683.88;5014008;28;20062;-83
2022/04/12 05:15:31;;;;;;;5.22;2.42;;;;;;;15.87;28.95;100679.25;5006351;28;20689;-82
2022/04/12 05:18:09;;;;;;;4.20;2.30;;;;;;;15.85;28.79;100673.94;5014274;28;20065;-82
2022/04/12 05:20:36;;;;;;;3.90;2.13;;;;;;;15.88;28.80;100681.00;5012898;28;20053;-82
2022/04/12 05:23:09;;;;;;;;;;;;;;;15.63;29.44;100670.56;5018409;28;20060;-82
2022/04/12 05:25:35;;;;;;;3.22;2.00;;;;;;;15.82;28.86;100668.72;5013590;28;19940;-83
2022/04/12 05:28:02;;;;;;;4.60;2.60;;;;;;;15.86;28.95;100677.53;5018260;28;20050;-83
2022/04/12 05:30:29;;;;;;;4.88;2.70;;;;;;;15.86;29.05;100677.53;5013010;28;20641;-82
2022/04/12 05:32:55;;;;;;;4.75;2.35;;;;;;;15.86;28.97;100677.53;5014200;28;20122;-82
2022/04/12 05:35:26;;;;;;;4.63;2.50;;;;;;;15.87;29.36;100682.88;5010028;28;20548;-82
2022/04/12 05:37:53;;;;;;;4.82;2.40;;;;;;;15.86;29.15;100667.44;5014963;28;20049;-83
2022/04/12 05:40:21;;;;;;;3.72;2.35;;;;;;;15.87;29.48;100674.66;5005471;28;20081;-83
2022/04/12 05:42:48;;;;;;;5.22;2.60;;;;;;;15.87;29.52;100699.28;5014694;28;20107;-82
2022/04/12 05:45:18;;;;;;;5.57;2.20;;;;;;;15.91;29.26;100686.19;5011419;28;20042;-83
2022/04/12 05:47:49;;;;;;;4.03;2.70;;;;;;;15.94;29.44;100691.38;5014203;28;20046;-82
2022/04/12 05:50:19;;;;;;;5.30;2.60;;;;;;;15.96;29.25;100686.63;5012720;28;20062;-82
2022/04/12 05:53:00;;;;;;;3.95;2.40;;;;;;;16.00;29.64;100679.84;5011163;28;20104;-83
2022/04/12 05:55:28;;;;;;;3.95;2.35;;;;;;;16.01;29.61;100678.84;5011608;28;20054;-82
2022/04/12 05:58:03;;;;;;;4.18;2.53;;;;;;;16.07;29.38;100688.38;5013986;28;20050;-83
2022/04/12 06:00:31;;;;;;;3.75;2.30;;;;;;;16.12;29.45;100700.66;5001575;28;20058;-84
2022/04/12 06:02:59;;;;;;;4.75;2.45;;;;;;;16.18;29.61;100701.94;5013303;28;20125;-84
2022/04/12 06:05:29;;;;;;;4.10;2.28;;;;;;;16.26;29.72;100699.34;5001847;28;20054;-84
2022/04/12 06:07:56;;;;;;;4.18;2.60;;;;;;;16.31;29.44;100705.25;5011238;28;20061;-86
2022/04/12 06:10:23;;;;;;;4.60;2.55;;;;;;;16.39;29.54;100713.63;5010764;28;20681;-85
2022/04/12 06:12:56;;;;;;;;;;;;;;;16.18;29.97;100701.94;5014016;28;20125;-84
2022/04/12 06:15:23;;;;;;;4.82;2.72;;;;;;;16.47;29.47;100711.03;5011557;28;19960;-84
2022/04/12 06:17:49;;;;;;;5.60;2.90;;;;;;;16.59;29.40;100709.91;5014399;28;20077;-85
2022/04/12 06:20:17;;;;;;;3.80;2.47;;;;;;;16.69;29.05;100709.94;5012350;28;20171;-84
2022/04/12 06:22:45;;;;;;;4.32;2.15;;;;;;;16.77;29.33;100706.47;5012645;28;20497;-85
2022/04/12 06:25:14;;;;;;;5.00;2.80;;;;;;;16.86;29.42;100702.84;5006506;28;20129;-86
2022/04/12 06:27:43;;;;;;;4.57;2.63;;;;;;;16.97;29.09;100702.66;5014177;28;20061;-85
2022/04/12 06:30:13;;;;;;;5.30;2.80;;;;;;;17.06;29.12;100699.91;5028296;28;20061;-84
2022/04/12 06:32:40;;;;;;;5.57;2.90;;;;;;;17.16;29.08;100701.75;5013471;28;20058;-84
2022/04/12 06:35:11;;;;;;;4.90;2.70;;;;;;;17.24;28.82;100694.50;5011670;28;20116;-84
2022/04/12 06:37:40;;;;;;;4.65;2.70;;;;;;;17.35;28.88;100698.97;5013205;28;20120;-85
2022/04/12 06:40:10;;;;;;;5.03;2.88;;;;;;;17.43;28.37;100696.34;5012050;28;20050;-85
2022/04/12 06:42:37;;;;;;;4.53;2.50;;;;;;;17.52;28.80;100703.66;5013921;28;20621;-86
2022/04/12 06:45:07;;;;;;;3.90;2.30;;;;;;;17.62;28.37;100688.06;5011648;28;20053;-85
2022/04/12 06:47:35;;;;;;;4.60;2.60;;;;;;;17.69;28.48;100685.56;5012756;28;20045;-85
2022/04/12 06:50:03;;;;;;;4.13;2.50;;;;;;;17.81;28.66;100684.31;5011693;28;20052;-84
2022/04/12 06:52:30;;;;;;;5.93;2.67;;;;;;;17.87;28.36;100681.81;5018207;28;20450;-84
2022/04/12 06:54:57;;;;;;;3.90;2.40;;;;;;;17.98;28.38;100671.66;5010686;28;20050;-85
2022/04/12 06:57:24;;;;;;;3.78;2.38;;;;;;;18.07;28.43;100674.34;5003070;28;20108;-85
2022/04/12 06:59:51;;;;;;;4.97;2.50;;;;;;;18.19;28.22;100683.25;5011133;28;20096;-84
2022/04/12 07:02:18;;;;;;;5.60;2.60;;;;;;;18.29;28.22;100686.75;5008895;28;20096;-85
2022/04/12 07:04:44;;;;;;;4.30;2.67;;;;;;;18.40;27.69;100685.66;5012200;28;20078;-83
2022/04/12 07:07:11;;;;;;;5.63;2.58;;;;;;;18.48;28.00;100689.34;5013750;28;20080;-77
2022/04/12 07:09:40;;;;;;;4.60;2.67;;;;;;;18.61;27.94;100680.75;4997588;28;20042;-81
2022/04/12 07:12:28;;;;;;;4.32;2.70;;;;;;;18.72;27.87;100687.88;5007985;28;20386;-79
2022/04/12 07:14:55;;;;;;;5.05;2.80;;;;;;;18.85;27.54;100680.97;5006636;28;20152;-80
2022/04/12 07:17:21;;;;;;;4.55;2.38;;;;;;;19.00;27.69;100686.75;4997677;28;20073;-79
2022/04/12 07:19:48;;;;;;;5.05;2.50;;;;;;;19.16;27.83;100681.34;4993372;28;20089;-80
2022/04/12 07:22:15;;;;;;;3.75;2.60;;;;;;;19.31;27.83;100692.63;4998716;28;20089;-80
2022/04/12 07:24:42;;;;;;;4.20;2.60;;;;;;;19.49;27.15;100678.81;4991771;28;20124;-83
2022/04/12 07:27:09;;;;;;;5.78;3.03;;;;;;;19.64;27.27;100680.78;4996738;28;20125;-80
2022/04/12 07:29:36;;;;;;;4.38;2.25;;;;;;;19.79;27.10;100674.63;4993496;28;20076;-79
2022/04/12 07:32:03;;;;;;;4.15;2.55;;;;;;;19.95;26.94;100677.44;5007302;28;20046;-80
2022/04/12 07:34:32;;;;;;;5.60;2.70;;;;;;;20.12;26.05;100685.59;4992628;28;20093;-81
2022/04/12 07:36:59;;;;;;;4.60;2.33;;;;;;;20.22;26.53;100679.09;5004510;28;20529;-82
2022/04/12 07:39:25;;;;;;;5.28;2.72;;;;;;;20.33;25.98;100687.03;5006973;28;20104;-81
2022/04/12 07:41:52;;;;;;;4.00;2.30;;;;;;;20.43;25.98;100682.25;4996530;28;20053;-81
2022/04/12 07:44:20;;;;;;;4.13;2.35;;;;;;;20.55;25.80;100691.06;5005318;28;20050;-80
2022/04/12 07:46:47;;;;;;;3.47;2.05;;;;;;;20.65;26.20;100686.25;4997765;28;20134;-81
2022/04/12 07:49:15;;;;;;;3.42;2.13;;;;;;;20.70;25.88;100679.16;4982704;28;20393;-81
2022/04/12 07:51:42;;;;;;;3.65;2.15;;;;;;;20.82;25.65;100682.47;5011517;28;20113;-83
2022/04/12 07:54:08;;;;;;;4.68;2.22;;;;;;;20.90;25.46;100671.41;5011039;28;20085;-82
2022/04/12 07:56:35;;;;;;;4.35;2.03;;;;;;;20.97;25.18;100668.81;5011122;28;20525;-82
2022/04/12 07:59:02;;;;;;;4.43;2.40;;;;;;;21.03;25.36;100665.34;5012124;28;20054;-83
2022/04/12 08:01:28;;;;;;;4.68;2.53;;;;;;;21.08;25.54;100666.56;5012648;28;20069;-85
2022/04/12 08:03:55;;;;;;;3.67;2.13;;;;;;;21.15;25.40;100663.97;5010138;28;20054;-84
2022/04/12 08:06:22;;;;;;;3.90;1.98;;;;;;;21.20;25.35;100669.84;5011250;28;20129;-85
2022/04/12 08:08:48;;;;;;;3.45;2.35;;;;;;;21.24;25.30;100666.56;5019917;28;20139;-85
2022/04/12 08:11:15;;;;;;;3.60;2.10;;;;;;;21.31;24.97;100660.34;5016724;28;20073;-85
2022/04/12 08:13:50;;;;;;;3.90;2.05;;;;;;;21.38;24.86;100656.69;5008882;28;20049;-84
2022/04/12 08:16:17;;;;;;;3.30;1.90;;;;;;;21.39;25.21;100658.41;5010233;28;20097;-84
2022/04/12 08:18:46;;;;;;;3.67;1.98;;;;;;;21.44;25.18;100655.09;5011268;28;20096;-85
2022/04/12 08:21:12;;;;;;;5.82;2.05;;;;;;;21.47;25.04;100652.88;5010553;28;20129;-84
2022/04/12 08:23:40;;;;;;;3.80;2.00;;;;;;;21.52;25.41;100647.66;5013446;28;20104;-83
2022/04/12 08:26:07;;;;;;;3.80;1.80;;;;;;;21.59;24.81;100664.38;5012321;28;20421;-84
2022/04/12 08:28:34;;;;;;;3.45;1.75;;;;;;;21.63;24.94;100658.34;5012112;28;20045;-84
2022/04/12 08:31:01;;;;;;;3.22;1.90;;;;;;;21.70;25.21;100674.19;5014851;28;20049;-86
2022/04/12 08:33:27;;;;;;;4.10;2.10;;;;;;;21.75;24.93;100671.72;5013834;28;20057;-83
2022/04/12 08:35:57;;;;;;;3.25;1.83;;;;;;;21.82;24.63;100665.34;5013156;28;20051;-85
2022/04/12 08:38:24;;;;;;;3.25;2.08;;;;;;;21.85;24.68;100661.31;5012556;28;20084;-85
2022/04/12 08:40:54;;;;;;;4.57;1.98;;;;;;;21.91;24.79;100669.75;5015398;28;20050;-85
2022/04/12 08:43:22;;;;;;;4.05;2.33;;;;;;;21.96;24.46;100647.13;5008986;28;20084;-84
2022/04/12 08:45:48;;;;;;;4.03;1.85;;;;;;;21.99;24.95;100644.00;5010016;28;20073;-85
2022/04/12 08:48:16;;;;;;;3.40;1.65;;;;;;;22.02;24.75;100650.03;5015219;28;20070;-85
2022/04/12 08:50:43;;;;;;;4.47;2.00;;;;;;;22.08;24.51;100661.41;5013923;28;20555;-84
2022/04/12 08:53:11;;;;;;;3.58;1.73;;;;;;;22.13;24.48;100654.31;5007189;28;20085;-84
2022/04/12 08:55:39;;;;;;;3.50;2.00;;;;;;;22.16;24.35;100662.22;5008315;28;20054;-84
2022/04/12 08:58:05;;;;;;;3.53;1.95;;;;;;;22.21;24.57;100654.25;5015993;28;20062;-86
2022/04/12 09:00:32;;;;;;;4.68;2.28;;;;;;;22.26;24.69;100664.75;5013898;28;20103;-85
2022/04/12 09:02:59;;;;;;;3.58;2.00;;;;;;;22.29;24.13;100654.22;4993149;28;20509;-85
2022/04/12 09:05:28;;;;;;;3.60;2.03;;;;;;;22.37;24.42;100647.75;5008195;28;20549;-86
2022/04/12 09:07:55;;;;;;;3.83;1.90;;;;;;;22.43;24.23;100655.31;5020572;28;20050;-85
2022/04/12 09:10:33;;;;;;;3.25;1.98;;;;;;;22.54;24.30;100654.03;5026350;28;20068;-85
2022/04/12 09:13:10;;;;;;;3.63;2.05;;;;;;;22.62;24.05;100653.97;5014841;28;20120;-85
2022/04/12 09:15:45;;;;;;;3.78;1.80;;;;;;;22.69;24.34;100649.41;5011081;28;20133;-85
2022/04/12 09:18:44;;;;;;;4.20;1.90;;;;;;;22.77;23.91;100653.00;5014915;28;20397;-86
2022/04/12 09:21:22;;;;;;;3.10;1.70;;;;;;;22.86;24.37;100645.47;5015042;28;20042;-85
2022/04/12 09:23:54;;;;;;;2.65;1.60;;;;;;;22.94;23.80;100653.72;5013363;28;20500;-85
2022/04/12 09:26:24;;;;;;;3.03;1.45;;;;;;;22.98;24.06;100646.72;5013740;28;20485;-86
2022/04/12 09:28:56;;;;;;;4.20;2.10;;;;;;;23.05;23.93;100646.84;5013363;28;20045;-86
2022/04/12 09:31:23;;;;;;;3.35;1.58;;;;;;;23.06;24.01;100641.09;5016021;28;20046;-86
2022/04/12 09:33:53;;;;;;;3.60;1.48;;;;;;;23.13;24.18;100639.34;5010761;28;20470;-86
2022/04/12 09:36:20;;;;;;;3.95;1.92;;;;;;;23.18;24.24;100622.13;5018427;28;20054;-85
2022/04/12 09:38:54;;;;;;;3.70;1.95;;;;;;;23.20;23.84;100633.03;5013331;28;20053;-85
2022/04/12 09:41:26;;;;;;;4.70;1.80;;;;;;;23.27;23.81;100633.97;5014052;28;20050;-85
2022/04/12 09:44:05;;;;;;;3.22;1.73;;;;;;;23.30;23.59;100628.06;5029269;28;20465;-84
2022/04/12 09:46:32;;;;;;;3.53;1.80;;;;;;;23.32;23.41;100626.81;5013093;28;20601;-84
2022/04/12 09:49:00;;;;;;;3.67;1.70;;;;;;;23.36;23.29;100621.75;5012512;28;20097;-85
2022/04/12 09:51:27;;;;;;;4.28;1.60;;;;;;;23.40;23.86;100626.72;5013624;28;20049;-86
2022/04/12 09:53:53;;;;;;;3.97;1.80;;;;;;;23.42;23.37;100630.16;4994402;28;20078;-86
2022/04/12 09:56:22;;;;;;;3.78;1.80;;;;;;;23.48;23.16;100622.97;5007882;28;20153;-85
2022/04/12 09:58:55;;;;;;;3.78;1.65;;;;;;;23.53;23.73;100612.22;5012570;28;20050;-85
2022/04/12 10:01:23;;;;;;;2.28;1.38;;;;;;;23.53;23.30;100615.00;5013103;28;20077;-85
2022/04/12 10:03:51;;;;;;;3.35;1.80;;;;;;;23.61;23.15;100614.91;5013431;28;20141;-85
2022/04/12 10:06:26;;;;;;;3.28;1.73;;;;;;;23.66;22.58;100603.22;5013452;28;20096;-86
2022/04/12 10:09:03;;;;;;;2.33;1.45;;;;;;;23.69;22.80;100602.84;5011787;28;20116;-74
2022/04/12 10:11:30;;;;;;;3.20;1.67;;;;;;;23.69;23.22;100603.72;5007728;28;20108;-74
2022/04/12 10:14:00;;;;;;;3.45;1.42;;;;;;;23.73;23.30;100616.13;5005759;28;20058;-73
2022/04/12 10:16:27;;;;;;;2.83;1.52;;;;;;;23.75;23.18;100616.78;5008958;28;20046;-74
2022/04/12 10:18:54;;;;;;;3.60;1.80;;;;;;;23.78;22.98;100599.78;5005643;28;20077;-73
2022/04/12 10:21:26;;;;;;;4.03;1.67;;;;;;;23.86;22.52;100604.34;5004408;28;20073;-76
2022/04/12 10:23:58;;;;;;;3.40;1.83;;;;;;;23.88;22.84;100593.94;5007817;28;20425;-74
2022/04/12 10:26:27;;;;;;;3.85;1.73;;;;;;;23.90;23.11;100589.03;5003323;28;20041;-74
2022/04/12 10:29:04;;;;;;;2.38;1.35;;;;;;;23.98;22.68;100586.13;5006359;28;20680;-74
2022/04/12 10:31:32;;;;;;;3.97;1.73;;;;;;;24.01;22.74;100582.09;4998858;28;20099;-74
2022/04/12 10:34:11;;;;;;;2.55;1.50;;;;;;;24.10;22.02;100586.47;5009598;28;20049;-75
2022/04/12 10:36:54;;;;;;;3.38;1.38;;;;;;;24.16;22.36;100585.69;5002477;28;20062;-77
2022/04/12 10:39:50;;;;;;;2.60;1.50;;;;;;;24.24;22.55;100588.38;5007342;28;20148;-76
2022/04/12 10:42:19;;;;;;;3.20;1.65;;;;;;;24.31;22.38;100585.66;5003876;28;21727;-76
2022/04/12 10:44:50;;;;;;;3.35;1.30;;;;;;;24.38;22.38;100581.06;5009627;28;20137;-75
2022/04/12 10:47:38;;;;;;;1.95;1.08;;;;;;;24.43;22.25;100584.94;5009280;28;21766;-90
2022/04/12 10:50:07;;;;;;;3.38;1.50;;;;;;;24.52;22.26;100575.41;5007599;28;20104;-86
2022/04/12 10:52:37;;;;;;;2.60;1.42;;;;;;;24.60;22.19;100568.88;5014256;28;20068;-89
2022/04/12 10:55:08;;;;;;;3.88;1.63;;;;;;;24.70;22.22;100580.50;5011298;28;20140;-82
2022/04/12 10:57:41;;;;;;;3.13;1.60;;;;;;;24.75;22.46;100568.75;5028041;28;20050;-84
2022/04/12 11:00:15;;;;;;;3.00;1.40;;;;;;;24.85;21.71;100578.47;5010942;28;20500;-83
2022/04/12 11:02:51;;;;;;;3.45;1.52;;;;;;;24.91;22.27;100572.13;5011821;28;20444;-84
2022/04/12 11:05:33;;;;;;;3.28;1.70;;;;;;;24.97;21.86;100560.19;5011369;28;20049;-85
2022/04/12 11:08:04;;;;;;;2.42;1.30;;;;;;;25.02;21.85;100566.03;5013383;28;20739;-84
2022/04/12 11:10:37;;;;;;;3.60;1.70;;;;;;;25.05;21.91;100553.63;5011646;28;20545;-86
2022/04/12 11:13:10;;;;;;;3.05;1.45;;;;;;;25.16;21.63;100563.31;5012623;28;20456;-82
2022/04/12 11:15:38;;;;;;;2.78;1.50;;;;;;;25.17;21.71;100565.03;5013043;28;20042;-82
2022/04/12 11:18:12;;;;;;;3.65;1.70;;;;;;;25.24;21.78;100558.47;5011687;28;20053;-81
2022/04/12 11:20:58;;;;;;;3.42;1.27;;;;;;;25.32;21.86;100558.28;5011475;28;20050;-88
2022/04/12 11:23:54;;;;;;;2.70;1.35;;;;;;;25.36;21.82;100542.94;5010550;28;20100;-87
2022/04/12 11:26:43;;;;;;;2.25;1.30;;;;;;;25.45;21.33;100546.38;5005947;28;20060;-80
2022/04/12 11:29:18;;;;;;;2.65;1.30;;;;;;;25.51;21.68;100531.66;5001107;28;20050;-79
2022/04/12 11:31:55;;;;;;;3.85;1.33;;;;;;;25.57;21.16;100536.38;5011333;28;20096;-80
2022/04/12 11:34:25;;;;;;;2.03;1.25;;;;;;;25.61;21.43;100551.59;5009934;28;20054;-85
2022/04/12 11:36:54;;;;;;;2.17;1.20;;;;;;;25.68;21.48;100548.88;4999123;28;20054;-87